sensor_id;sensor_type;location;lat;lon;timestamp;P1;durP1;ratioP1;P2;durP2;ratioP2
15608;SDS011;28705;45.642;13.758;2022-08-04T00:01:27;2.42;;;2.33;;
15608;SDS011;28705;45.642;13.758;2022-08-04T00:03:59;2.03;;;1.92;;
15608;SDS011;28705;45.642;13.758;2022-08-04T00:06:32;2.85;;;2.30;;
15608;SDS011;28705;45.642;13.758;2022-08-04T00:09:07;2.60;;;2.40;;
15608;SDS011;28705;45.642;13.758;2022-08-04T00:11:40;4.22;;;2.20;;
15608;SDS011;28705;45.642;13.758;2022-08-04T00:14:12;4.72;;;2.47;;
15608;SDS011;28705;45.642;13.758;2022-08-04T00:16:41;3.85;;;2.00;;
15608;SDS011;28705;45.642;13.758;2022-08-04T00:19:11;2.47;;;2.25;;
15608;SDS011;28705;45.642;13.758;2022-08-04T00:21:45;2.22;;;2.13;;
15608;SDS011;28705;45.642;13.758;2022-08-04T00:24:15;2.45;;;2.35;;
15608;SDS011;28705;45.642;13.758;2022-08-04T00:26:45;2.30;;;1.90;;
15608;SDS011;28705;45.642;13.758;2022-08-04T00:29:13;2.08;;;1.88;;
15608;SDS011;28705;45.642;13.758;2022-08-04T00:31:41;2.65;;;2.38;;
15608;SDS011;28705;45.642;13.758;2022-08-04T00:34:09;2.53;;;2.30;;
15608;SDS011;28705;45.642;13.758;2022-08-04T00:36:37;2.70;;;2.50;;
15608;SDS011;28705;45.642;13.758;2022-08-04T00:39:05;2.70;;;2.50;;
15608;SDS011;28705;45.642;13.758;2022-08-04T00:41:39;2.63;;;2.42;;
15608;SDS011;28705;45.642;13.758;2022-08-04T00:44:21;2.55;;;2.35;;
15608;SDS011;28705;45.642;13.758;2022-08-04T00:47:13;2.30;;;2.20;;
15608;SDS011;28705;45.642;13.758;2022-08-04T00:49:54;2.35;;;2.25;;
15608;SDS011;28705;45.642;13.758;2022-08-04T00:52:35;2.35;;;2.20;;
15608;SDS011;28705;45.642;13.758;2022-08-04T00:55:14;2.05;;;1.95;;
15608;SDS011;28705;45.642;13.758;2022-08-04T00:58:08;1.90;;;1.80;;
15608;SDS011;28705;45.642;13.758;2022-08-04T01:00:53;1.92;;;1.75;;
15608;SDS011;28705;45.642;13.758;2022-08-04T01:03:31;2.10;;;2.00;;
15608;SDS011;28705;45.642;13.758;2022-08-04T01:06:08;1.98;;;1.88;;
15608;SDS011;28705;45.642;13.758;2022-08-04T01:08:48;1.83;;;1.73;;
15608;SDS011;28705;45.642;13.758;2022-08-04T01:11:35;2.80;;;2.03;;
15608;SDS011;28705;45.642;13.758;2022-08-04T01:14:26;2.22;;;2.13;;
15608;SDS011;28705;45.642;13.758;2022-08-04T01:17:06;2.60;;;2.35;;
15608;SDS011;28705;45.642;13.758;2022-08-04T01:22:49;2.47;;;2.30;;
15608;SDS011;28705;45.642;13.758;2022-08-04T01:25:40;2.05;;;1.95;;
15608;SDS011;28705;45.642;13.758;2022-08-04T01:28:28;2.35;;;1.63;;
15608;SDS011;28705;45.642;13.758;2022-08-04T01:31:05;2.17;;;2.08;;
15608;SDS011;28705;45.642;13.758;2022-08-04T01:33:36;2.80;;;2.58;;
15608;SDS011;28705;45.642;13.758;2022-08-04T01:36:05;2.10;;;2.00;;
15608;SDS011;28705;45.642;13.758;2022-08-04T01:38:35;2.83;;;2.40;;
15608;SDS011;28705;45.642;13.758;2022-08-04T01:41:05;4.20;;;2.55;;
15608;SDS011;28705;45.642;13.758;2022-08-04T01:43:33;3.75;;;2.95;;
15608;SDS011;28705;45.642;13.758;2022-08-04T01:46:07;2.35;;;2.15;;
15608;SDS011;28705;45.642;13.758;2022-08-04T01:48:37;2.67;;;2.35;;
15608;SDS011;28705;45.642;13.758;2022-08-04T01:51:05;2.10;;;2.00;;
15608;SDS011;28705;45.642;13.758;2022-08-04T01:53:34;2.08;;;1.98;;
15608;SDS011;28705;45.642;13.758;2022-08-04T01:56:02;2.72;;;2.40;;
15608;SDS011;28705;45.642;13.758;2022-08-04T01:58:31;2.05;;;1.95;;
15608;SDS011;28705;45.642;13.758;2022-08-04T02:01:00;2.08;;;1.98;;
15608;SDS011;28705;45.642;13.758;2022-08-04T02:03:31;2.10;;;1.90;;
15608;SDS011;28705;45.642;13.758;2022-08-04T02:06:02;2.85;;;1.90;;
15608;SDS011;28705;45.642;13.758;2022-08-04T02:08:39;1.85;;;1.75;;
15608;SDS011;28705;45.642;13.758;2022-08-04T02:11:14;2.42;;;2.22;;
15608;SDS011;28705;45.642;13.758;2022-08-04T02:13:46;2.00;;;1.90;;
15608;SDS011;28705;45.642;13.758;2022-08-04T02:16:22;2.70;;;1.88;;
15608;SDS011;28705;45.642;13.758;2022-08-04T02:18:59;2.53;;;2.13;;
15608;SDS011;28705;45.642;13.758;2022-08-04T02:21:30;1.90;;;1.80;;
15608;SDS011;28705;45.642;13.758;2022-08-04T02:23:59;2.13;;;2.03;;
15608;SDS011;28705;45.642;13.758;2022-08-04T02:26:31;3.30;;;1.80;;
15608;SDS011;28705;45.642;13.758;2022-08-04T02:28:59;2.15;;;1.95;;
15608;SDS011;28705;45.642;13.758;2022-08-04T02:31:37;1.95;;;1.85;;
15608;SDS011;28705;45.642;13.758;2022-08-04T02:34:08;3.38;;;2.22;;
15608;SDS011;28705;45.642;13.758;2022-08-04T02:36:40;2.30;;;2.20;;
15608;SDS011;28705;45.642;13.758;2022-08-04T02:39:08;3.10;;;2.90;;
15608;SDS011;28705;45.642;13.758;2022-08-04T02:41:37;2.45;;;2.10;;
15608;SDS011;28705;45.642;13.758;2022-08-04T02:44:06;2.10;;;1.95;;
15608;SDS011;28705;45.642;13.758;2022-08-04T02:46:35;2.28;;;2.08;;
15608;SDS011;28705;45.642;13.758;2022-08-04T02:49:04;2.20;;;2.10;;
15608;SDS011;28705;45.642;13.758;2022-08-04T02:51:34;2.30;;;2.10;;
15608;SDS011;28705;45.642;13.758;2022-08-04T02:54:05;2.28;;;2.05;;
15608;SDS011;28705;45.642;13.758;2022-08-04T02:56:33;2.35;;;2.17;;
15608;SDS011;28705;45.642;13.758;2022-08-04T02:59:02;2.20;;;2.10;;
15608;SDS011;28705;45.642;13.758;2022-08-04T03:01:31;2.60;;;2.40;;
15608;SDS011;28705;45.642;13.758;2022-08-04T03:04:05;2.42;;;2.20;;
15608;SDS011;28705;45.642;13.758;2022-08-04T03:13:02;2.15;;;2.00;;
15608;SDS011;28705;45.642;13.758;2022-08-04T03:15:57;2.20;;;2.10;;
15608;SDS011;28705;45.642;13.758;2022-08-04T03:21:56;2.55;;;2.38;;
15608;SDS011;28705;45.642;13.758;2022-08-04T03:27:51;2.83;;;2.63;;
15608;SDS011;28705;45.642;13.758;2022-08-04T03:30:42;2.92;;;2.75;;
15608;SDS011;28705;45.642;13.758;2022-08-04T03:36:30;2.90;;;2.70;;
15608;SDS011;28705;45.642;13.758;2022-08-04T03:39:51;2.97;;;2.78;;
15608;SDS011;28705;45.642;13.758;2022-08-04T03:45:52;3.00;;;2.80;;
15608;SDS011;28705;45.642;13.758;2022-08-04T03:51:42;2.50;;;2.40;;
15608;SDS011;28705;45.642;13.758;2022-08-04T03:54:50;2.65;;;2.45;;
15608;SDS011;28705;45.642;13.758;2022-08-04T04:00:56;2.85;;;2.30;;
15608;SDS011;28705;45.642;13.758;2022-08-04T04:03:47;2.53;;;2.15;;
15608;SDS011;28705;45.642;13.758;2022-08-04T04:09:21;2.40;;;2.03;;
15608;SDS011;28705;45.642;13.758;2022-08-04T04:12:10;2.00;;;1.90;;
15608;SDS011;28705;45.642;13.758;2022-08-04T04:17:59;2.50;;;2.15;;
15608;SDS011;28705;45.642;13.758;2022-08-04T04:20:55;2.20;;;2.10;;
15608;SDS011;28705;45.642;13.758;2022-08-04T04:23:37;2.08;;;1.98;;
15608;SDS011;28705;45.642;13.758;2022-08-04T04:26:20;2.33;;;2.22;;
15608;SDS011;28705;45.642;13.758;2022-08-04T04:29:08;2.70;;;2.50;;
15608;SDS011;28705;45.642;13.758;2022-08-04T04:31:55;2.67;;;2.47;;
15608;SDS011;28705;45.642;13.758;2022-08-04T04:34:42;2.65;;;2.45;;
15608;SDS011;28705;45.642;13.758;2022-08-04T04:37:19;2.95;;;2.75;;
15608;SDS011;28705;45.642;13.758;2022-08-04T04:40:02;2.20;;;2.10;;
15608;SDS011;28705;45.642;13.758;2022-08-04T04:42:44;2.25;;;2.15;;
15608;SDS011;28705;45.642;13.758;2022-08-04T04:45:32;2.50;;;2.30;;
15608;SDS011;28705;45.642;13.758;2022-08-04T04:48:06;2.35;;;2.00;;
15608;SDS011;28705;45.642;13.758;2022-08-04T04:50:50;4.40;;;2.63;;
15608;SDS011;28705;45.642;13.758;2022-08-04T04:53:26;1.98;;;1.88;;
15608;SDS011;28705;45.642;13.758;2022-08-04T04:56:02;2.00;;;1.90;;
15608;SDS011;28705;45.642;13.758;2022-08-04T04:58:32;2.13;;;1.98;;
15608;SDS011;28705;45.642;13.758;2022-08-04T05:01:19;2.28;;;2.17;;
15608;SDS011;28705;45.642;13.758;2022-08-04T05:04:12;3.13;;;2.03;;
15608;SDS011;28705;45.642;13.758;2022-08-04T05:06:58;2.05;;;1.90;;
15608;SDS011;28705;45.642;13.758;2022-08-04T05:09:50;2.80;;;2.53;;
15608;SDS011;28705;45.642;13.758;2022-08-04T05:12:36;2.17;;;1.98;;
15608;SDS011;28705;45.642;13.758;2022-08-04T05:15:16;2.30;;;2.10;;
15608;SDS011;28705;45.642;13.758;2022-08-04T05:17:49;2.42;;;2.28;;
15608;SDS011;28705;45.642;13.758;2022-08-04T05:20:21;2.75;;;2.10;;
15608;SDS011;28705;45.642;13.758;2022-08-04T05:22:53;2.30;;;2.20;;
15608;SDS011;28705;45.642;13.758;2022-08-04T05:25:24;2.30;;;1.90;;
15608;SDS011;28705;45.642;13.758;2022-08-04T05:27:59;2.55;;;2.35;;
15608;SDS011;28705;45.642;13.758;2022-08-04T05:30:31;2.05;;;1.90;;
15608;SDS011;28705;45.642;13.758;2022-08-04T05:33:11;2.33;;;2.13;;
15608;SDS011;28705;45.642;13.758;2022-08-04T05:35:41;2.30;;;2.20;;
15608;SDS011;28705;45.642;13.758;2022-08-04T05:38:14;3.03;;;2.03;;
15608;SDS011;28705;45.642;13.758;2022-08-04T05:40:45;2.13;;;2.03;;
15608;SDS011;28705;45.642;13.758;2022-08-04T05:43:13;2.50;;;2.33;;
15608;SDS011;28705;45.642;13.758;2022-08-04T05:45:43;2.50;;;2.30;;
15608;SDS011;28705;45.642;13.758;2022-08-04T05:48:12;2.08;;;1.90;;
15608;SDS011;28705;45.642;13.758;2022-08-04T05:50:40;2.58;;;2.38;;
15608;SDS011;28705;45.642;13.758;2022-08-04T05:53:08;2.88;;;2.10;;
15608;SDS011;28705;45.642;13.758;2022-08-04T05:55:38;2.72;;;2.60;;
15608;SDS011;28705;45.642;13.758;2022-08-04T05:58:05;2.30;;;2.10;;
15608;SDS011;28705;45.642;13.758;2022-08-04T06:00:33;2.42;;;2.33;;
15608;SDS011;28705;45.642;13.758;2022-08-04T06:03:01;2.65;;;2.45;;
15608;SDS011;28705;45.642;13.758;2022-08-04T06:05:29;2.38;;;2.17;;
15608;SDS011;28705;45.642;13.758;2022-08-04T06:07:57;2.00;;;1.90;;
15608;SDS011;28705;45.642;13.758;2022-08-04T06:10:24;2.53;;;2.33;;
15608;SDS011;28705;45.642;13.758;2022-08-04T06:12:54;2.50;;;2.10;;
15608;SDS011;28705;45.642;13.758;2022-08-04T06:15:23;2.35;;;2.25;;
15608;SDS011;28705;45.642;13.758;2022-08-04T06:17:53;3.10;;;2.90;;
15608;SDS011;28705;45.642;13.758;2022-08-04T06:20:27;4.40;;;3.08;;
15608;SDS011;28705;45.642;13.758;2022-08-04T06:22:57;3.20;;;2.97;;
15608;SDS011;28705;45.642;13.758;2022-08-04T06:25:28;2.67;;;2.47;;
15608;SDS011;28705;45.642;13.758;2022-08-04T06:28:00;2.53;;;2.30;;
15608;SDS011;28705;45.642;13.758;2022-08-04T06:30:30;2.38;;;2.17;;
15608;SDS011;28705;45.642;13.758;2022-08-04T06:32:58;3.17;;;2.20;;
15608;SDS011;28705;45.642;13.758;2022-08-04T06:35:27;3.10;;;2.13;;
15608;SDS011;28705;45.642;13.758;2022-08-04T06:37:56;1.98;;;1.88;;
15608;SDS011;28705;45.642;13.758;2022-08-04T06:40:25;2.28;;;2.10;;
15608;SDS011;28705;45.642;13.758;2022-08-04T06:42:53;2.00;;;1.90;;
15608;SDS011;28705;45.642;13.758;2022-08-04T06:45:23;1.88;;;1.77;;
15608;SDS011;28705;45.642;13.758;2022-08-04T06:47:50;2.47;;;2.28;;
15608;SDS011;28705;45.642;13.758;2022-08-04T06:50:25;2.70;;;2.05;;
15608;SDS011;28705;45.642;13.758;2022-08-04T06:52:53;1.88;;;1.70;;
15608;SDS011;28705;45.642;13.758;2022-08-04T06:55:20;2.17;;;1.98;;
15608;SDS011;28705;45.642;13.758;2022-08-04T06:57:49;2.33;;;2.10;;
15608;SDS011;28705;45.642;13.758;2022-08-04T07:00:16;2.20;;;2.03;;
15608;SDS011;28705;45.642;13.758;2022-08-04T07:02:45;1.95;;;1.85;;
15608;SDS011;28705;45.642;13.758;2022-08-04T07:05:37;3.15;;;2.33;;
15608;SDS011;28705;45.642;13.758;2022-08-04T07:08:06;2.17;;;1.98;;
15608;SDS011;28705;45.642;13.758;2022-08-04T07:10:35;1.90;;;1.80;;
15608;SDS011;28705;45.642;13.758;2022-08-04T07:13:03;1.80;;;1.70;;
15608;SDS011;28705;45.642;13.758;2022-08-04T07:15:31;2.03;;;1.83;;
15608;SDS011;28705;45.642;13.758;2022-08-04T07:18:02;2.03;;;1.92;;
15608;SDS011;28705;45.642;13.758;2022-08-04T07:20:29;2.33;;;1.85;;
15608;SDS011;28705;45.642;13.758;2022-08-04T07:22:58;2.45;;;2.20;;
15608;SDS011;28705;45.642;13.758;2022-08-04T07:25:26;2.00;;;1.88;;
15608;SDS011;28705;45.642;13.758;2022-08-04T07:27:53;2.40;;;2.20;;
15608;SDS011;28705;45.642;13.758;2022-08-04T07:30:20;1.75;;;1.65;;
15608;SDS011;28705;45.642;13.758;2022-08-04T07:32:50;3.25;;;2.30;;
15608;SDS011;28705;45.642;13.758;2022-08-04T07:35:20;2.40;;;2.20;;
15608;SDS011;28705;45.642;13.758;2022-08-04T07:37:48;2.20;;;2.10;;
15608;SDS011;28705;45.642;13.758;2022-08-04T07:40:15;2.90;;;1.90;;
15608;SDS011;28705;45.642;13.758;2022-08-04T07:42:42;2.47;;;2.03;;
15608;SDS011;28705;45.642;13.758;2022-08-04T07:45:10;2.10;;;1.88;;
15608;SDS011;28705;45.642;13.758;2022-08-04T07:47:37;2.05;;;1.80;;
15608;SDS011;28705;45.642;13.758;2022-08-04T07:50:06;2.13;;;1.92;;
15608;SDS011;28705;45.642;13.758;2022-08-04T07:52:37;1.70;;;1.60;;
15608;SDS011;28705;45.642;13.758;2022-08-04T07:55:05;1.92;;;1.70;;
15608;SDS011;28705;45.642;13.758;2022-08-04T07:57:33;1.77;;;1.67;;
15608;SDS011;28705;45.642;13.758;2022-08-04T08:00:01;2.33;;;2.13;;
15608;SDS011;28705;45.642;13.758;2022-08-04T08:02:28;1.58;;;1.48;;
15608;SDS011;28705;45.642;13.758;2022-08-04T08:04:55;2.20;;;2.05;;
15608;SDS011;28705;45.642;13.758;2022-08-04T08:07:22;2.55;;;2.45;;
15608;SDS011;28705;45.642;13.758;2022-08-04T08:09:51;3.45;;;2.92;;
15608;SDS011;28705;45.642;13.758;2022-08-04T08:12:18;2.72;;;2.40;;
15608;SDS011;28705;45.642;13.758;2022-08-04T08:14:46;5.85;;;2.90;;
15608;SDS011;28705;45.642;13.758;2022-08-04T08:17:13;3.13;;;2.50;;
15608;SDS011;28705;45.642;13.758;2022-08-04T08:19:40;3.78;;;2.65;;
15608;SDS011;28705;45.642;13.758;2022-08-04T08:22:09;3.20;;;2.70;;
15608;SDS011;28705;45.642;13.758;2022-08-04T08:24:37;3.92;;;3.08;;
15608;SDS011;28705;45.642;13.758;2022-08-04T08:27:05;3.90;;;2.60;;
15608;SDS011;28705;45.642;13.758;2022-08-04T08:29:33;5.03;;;3.08;;
15608;SDS011;28705;45.642;13.758;2022-08-04T08:32:00;3.50;;;3.17;;
15608;SDS011;28705;45.642;13.758;2022-08-04T08:34:28;3.05;;;2.85;;
15608;SDS011;28705;45.642;13.758;2022-08-04T08:36:58;2.80;;;2.60;;
15608;SDS011;28705;45.642;13.758;2022-08-04T08:39:31;3.40;;;3.10;;
15608;SDS011;28705;45.642;13.758;2022-08-04T08:42:13;3.42;;;3.13;;
15608;SDS011;28705;45.642;13.758;2022-08-04T08:45:18;4.38;;;2.97;;
15608;SDS011;28705;45.642;13.758;2022-08-04T08:48:06;3.13;;;2.92;;
15608;SDS011;28705;45.642;13.758;2022-08-04T08:50:49;6.43;;;3.38;;
15608;SDS011;28705;45.642;13.758;2022-08-04T08:53:34;3.03;;;2.78;;
15608;SDS011;28705;45.642;13.758;2022-08-04T08:56:25;4.68;;;2.80;;
15608;SDS011;28705;45.642;13.758;2022-08-04T08:59:17;3.70;;;3.20;;
15608;SDS011;28705;45.642;13.758;2022-08-04T09:02:02;2.80;;;2.60;;
15608;SDS011;28705;45.642;13.758;2022-08-04T09:04:47;3.20;;;2.75;;
15608;SDS011;28705;45.642;13.758;2022-08-04T09:10:33;3.08;;;2.88;;
15608;SDS011;28705;45.642;13.758;2022-08-04T09:13:09;4.03;;;2.97;;
15608;SDS011;28705;45.642;13.758;2022-08-04T09:15:46;5.35;;;2.90;;
15608;SDS011;28705;45.642;13.758;2022-08-04T09:18:21;3.47;;;3.17;;
15608;SDS011;28705;45.642;13.758;2022-08-04T09:20:50;3.50;;;3.20;;
15608;SDS011;28705;45.642;13.758;2022-08-04T09:23:26;4.47;;;2.88;;
15608;SDS011;28705;45.642;13.758;2022-08-04T09:26:00;4.60;;;3.40;;
15608;SDS011;28705;45.642;13.758;2022-08-04T09:28:34;5.50;;;3.38;;
15608;SDS011;28705;45.642;13.758;2022-08-04T09:31:11;5.35;;;3.55;;
15608;SDS011;28705;45.642;13.758;2022-08-04T09:33:43;5.95;;;3.38;;
15608;SDS011;28705;45.642;13.758;2022-08-04T09:36:19;4.38;;;3.53;;
15608;SDS011;28705;45.642;13.758;2022-08-04T09:39:02;3.50;;;3.25;;
15608;SDS011;28705;45.642;13.758;2022-08-04T09:41:37;6.80;;;4.30;;
15608;SDS011;28705;45.642;13.758;2022-08-04T09:44:15;3.85;;;3.55;;
15608;SDS011;28705;45.642;13.758;2022-08-04T09:46:51;5.28;;;3.63;;
15608;SDS011;28705;45.642;13.758;2022-08-04T09:49:26;4.90;;;4.07;;
15608;SDS011;28705;45.642;13.758;2022-08-04T09:52:00;5.03;;;3.95;;
15608;SDS011;28705;45.642;13.758;2022-08-04T09:54:37;4.20;;;3.78;;
15608;SDS011;28705;45.642;13.758;2022-08-04T09:57:12;4.30;;;4.03;;
15608;SDS011;28705;45.642;13.758;2022-08-04T09:59:48;4.07;;;3.63;;
15608;SDS011;28705;45.642;13.758;2022-08-04T10:02:23;4.35;;;4.03;;
15608;SDS011;28705;45.642;13.758;2022-08-04T10:04:57;5.63;;;3.83;;
15608;SDS011;28705;45.642;13.758;2022-08-04T10:07:38;4.65;;;4.35;;
15608;SDS011;28705;45.642;13.758;2022-08-04T10:10:18;4.35;;;3.95;;
15608;SDS011;28705;45.642;13.758;2022-08-04T10:13:02;4.38;;;4.00;;
15608;SDS011;28705;45.642;13.758;2022-08-04T10:15:39;3.55;;;3.35;;
15608;SDS011;28705;45.642;13.758;2022-08-04T10:18:16;3.33;;;3.13;;
15608;SDS011;28705;45.642;13.758;2022-08-04T10:20:58;3.67;;;3.38;;
15608;SDS011;28705;45.642;13.758;2022-08-04T10:23:32;4.20;;;3.85;;
15608;SDS011;28705;45.642;13.758;2022-08-04T10:26:10;3.33;;;2.92;;
15608;SDS011;28705;45.642;13.758;2022-08-04T10:28:50;4.00;;;3.65;;
15608;SDS011;28705;45.642;13.758;2022-08-04T10:31:23;3.95;;;3.70;;
15608;SDS011;28705;45.642;13.758;2022-08-04T10:33:56;4.13;;;3.58;;
15608;SDS011;28705;45.642;13.758;2022-08-04T10:36:27;4.45;;;3.80;;
15608;SDS011;28705;45.642;13.758;2022-08-04T10:39:02;3.42;;;3.22;;
15608;SDS011;28705;45.642;13.758;2022-08-04T10:41:34;3.30;;;3.10;;
15608;SDS011;28705;45.642;13.758;2022-08-04T10:44:14;5.05;;;4.63;;
15608;SDS011;28705;45.642;13.758;2022-08-04T10:46:48;3.42;;;3.22;;
15608;SDS011;28705;45.642;13.758;2022-08-04T10:49:26;3.40;;;3.20;;
15608;SDS011;28705;45.642;13.758;2022-08-04T10:52:01;3.60;;;3.30;;
15608;SDS011;28705;45.642;13.758;2022-08-04T10:54:36;4.13;;;2.80;;
15608;SDS011;28705;45.642;13.758;2022-08-04T10:57:11;3.75;;;3.40;;
15608;SDS011;28705;45.642;13.758;2022-08-04T10:59:46;3.60;;;3.40;;
15608;SDS011;28705;45.642;13.758;2022-08-04T11:02:26;3.80;;;3.53;;
15608;SDS011;28705;45.642;13.758;2022-08-04T11:05:08;3.88;;;3.58;;
15608;SDS011;28705;45.642;13.758;2022-08-04T11:07:40;3.30;;;3.10;;
15608;SDS011;28705;45.642;13.758;2022-08-04T11:10:09;3.63;;;3.33;;
15608;SDS011;28705;45.642;13.758;2022-08-04T11:12:38;3.47;;;3.20;;
15608;SDS011;28705;45.642;13.758;2022-08-04T11:15:08;3.38;;;3.17;;
15608;SDS011;28705;45.642;13.758;2022-08-04T11:17:39;3.25;;;3.05;;
15608;SDS011;28705;45.642;13.758;2022-08-04T11:20:12;2.92;;;2.72;;
15608;SDS011;28705;45.642;13.758;2022-08-04T11:22:43;3.65;;;3.40;;
15608;SDS011;28705;45.642;13.758;2022-08-04T11:25:18;2.80;;;2.70;;
15608;SDS011;28705;45.642;13.758;2022-08-04T11:27:50;3.53;;;3.30;;
15608;SDS011;28705;45.642;13.758;2022-08-04T11:30:29;3.20;;;3.00;;
15608;SDS011;28705;45.642;13.758;2022-08-04T11:33:03;3.35;;;2.83;;
15608;SDS011;28705;45.642;13.758;2022-08-04T11:35:37;3.55;;;3.35;;
15608;SDS011;28705;45.642;13.758;2022-08-04T11:38:10;3.05;;;2.85;;
15608;SDS011;28705;45.642;13.758;2022-08-04T11:40:43;3.40;;;3.20;;
15608;SDS011;28705;45.642;13.758;2022-08-04T11:43:15;2.92;;;2.72;;
15608;SDS011;28705;45.642;13.758;2022-08-04T11:45:49;3.63;;;3.28;;
15608;SDS011;28705;45.642;13.758;2022-08-04T11:48:21;3.05;;;2.88;;
15608;SDS011;28705;45.642;13.758;2022-08-04T11:50:56;3.17;;;2.97;;
15608;SDS011;28705;45.642;13.758;2022-08-04T11:53:26;3.10;;;2.90;;
15608;SDS011;28705;45.642;13.758;2022-08-04T11:55:57;3.50;;;3.30;;
15608;SDS011;28705;45.642;13.758;2022-08-04T11:58:26;3.17;;;2.88;;
15608;SDS011;28705;45.642;13.758;2022-08-04T12:01:01;3.42;;;3.22;;
15608;SDS011;28705;45.642;13.758;2022-08-04T12:03:35;2.83;;;2.63;;
15608;SDS011;28705;45.642;13.758;2022-08-04T12:06:14;3.20;;;3.00;;
15608;SDS011;28705;45.642;13.758;2022-08-04T12:08:57;2.78;;;2.58;;
15608;SDS011;28705;45.642;13.758;2022-08-04T12:11:34;3.17;;;2.60;;
15608;SDS011;28705;45.642;13.758;2022-08-04T12:14:10;2.92;;;2.72;;
15608;SDS011;28705;45.642;13.758;2022-08-04T12:16:47;2.90;;;2.72;;
15608;SDS011;28705;45.642;13.758;2022-08-04T12:19:29;2.90;;;2.70;;
15608;SDS011;28705;45.642;13.758;2022-08-04T12:22:02;2.88;;;2.67;;
15608;SDS011;28705;45.642;13.758;2022-08-04T12:24:35;3.13;;;2.92;;
15608;SDS011;28705;45.642;13.758;2022-08-04T12:27:09;3.08;;;2.88;;
15608;SDS011;28705;45.642;13.758;2022-08-04T12:29:40;3.17;;;2.97;;
15608;SDS011;28705;45.642;13.758;2022-08-04T12:32:16;3.13;;;2.92;;
15608;SDS011;28705;45.642;13.758;2022-08-04T12:34:48;2.90;;;2.70;;
15608;SDS011;28705;45.642;13.758;2022-08-04T12:37:27;3.00;;;2.80;;
15608;SDS011;28705;45.642;13.758;2022-08-04T12:40:02;2.80;;;2.60;;
15608;SDS011;28705;45.642;13.758;2022-08-04T12:42:35;2.88;;;2.67;;
15608;SDS011;28705;45.642;13.758;2022-08-04T12:45:10;4.03;;;3.13;;
15608;SDS011;28705;45.642;13.758;2022-08-04T12:47:37;11.85;;;4.38;;
15608;SDS011;28705;45.642;13.758;2022-08-04T12:50:06;6.40;;;4.65;;
15608;SDS011;28705;45.642;13.758;2022-08-04T12:52:53;12.13;;;4.53;;
15608;SDS011;28705;45.642;13.758;2022-08-04T12:55:23;10.60;;;4.40;;
15608;SDS011;28705;45.642;13.758;2022-08-04T12:57:52;7.80;;;4.30;;
15608;SDS011;28705;45.642;13.758;2022-08-04T13:00:24;13.40;;;10.93;;
15608;SDS011;28705;45.642;13.758;2022-08-04T13:02:52;12.95;;;9.18;;
15608;SDS011;28705;45.642;13.758;2022-08-04T13:05:24;10.50;;;8.15;;
15608;SDS011;28705;45.642;13.758;2022-08-04T13:07:55;9.77;;;7.65;;
15608;SDS011;28705;45.642;13.758;2022-08-04T13:10:23;9.30;;;6.25;;
15608;SDS011;28705;45.642;13.758;2022-08-04T13:12:54;7.55;;;6.85;;
15608;SDS011;28705;45.642;13.758;2022-08-04T13:15:24;7.72;;;6.53;;
15608;SDS011;28705;45.642;13.758;2022-08-04T13:17:54;7.10;;;6.00;;
15608;SDS011;28705;45.642;13.758;2022-08-04T13:20:24;6.97;;;6.22;;
15608;SDS011;28705;45.642;13.758;2022-08-04T13:22:58;5.97;;;5.47;;
15608;SDS011;28705;45.642;13.758;2022-08-04T13:25:29;6.88;;;5.43;;
15608;SDS011;28705;45.642;13.758;2022-08-04T13:27:57;6.05;;;5.53;;
15608;SDS011;28705;45.642;13.758;2022-08-04T13:30:26;6.30;;;5.78;;
15608;SDS011;28705;45.642;13.758;2022-08-04T13:32:56;8.80;;;4.70;;
15608;SDS011;28705;45.642;13.758;2022-08-04T13:35:25;5.13;;;4.57;;
15608;SDS011;28705;45.642;13.758;2022-08-04T13:37:54;7.28;;;5.13;;
15608;SDS011;28705;45.642;13.758;2022-08-04T13:40:25;5.47;;;5.03;;
15608;SDS011;28705;45.642;13.758;2022-08-04T13:42:53;5.65;;;5.15;;
15608;SDS011;28705;45.642;13.758;2022-08-04T13:45:23;6.15;;;5.13;;
15608;SDS011;28705;45.642;13.758;2022-08-04T13:47:55;4.65;;;4.32;;
15608;SDS011;28705;45.642;13.758;2022-08-04T13:50:25;4.50;;;4.03;;
15608;SDS011;28705;45.642;13.758;2022-08-04T13:52:54;5.20;;;4.65;;
15608;SDS011;28705;45.642;13.758;2022-08-04T13:55:26;4.35;;;3.85;;
15608;SDS011;28705;45.642;13.758;2022-08-04T13:57:56;4.28;;;3.90;;
15608;SDS011;28705;45.642;13.758;2022-08-04T14:00:39;4.32;;;4.03;;
15608;SDS011;28705;45.642;13.758;2022-08-04T14:03:13;4.70;;;4.28;;
15608;SDS011;28705;45.642;13.758;2022-08-04T14:08:50;5.32;;;3.83;;
15608;SDS011;28705;45.642;13.758;2022-08-04T14:11:21;3.97;;;3.22;;
15608;SDS011;28705;45.642;13.758;2022-08-04T14:13:57;4.50;;;3.95;;
15608;SDS011;28705;45.642;13.758;2022-08-04T14:16:24;7.05;;;3.95;;
15608;SDS011;28705;45.642;13.758;2022-08-04T14:18:56;3.25;;;2.92;;
15608;SDS011;28705;45.642;13.758;2022-08-04T14:21:25;3.45;;;3.15;;
15608;SDS011;28705;45.642;13.758;2022-08-04T14:23:53;4.15;;;3.03;;
15608;SDS011;28705;45.642;13.758;2022-08-04T14:26:24;4.40;;;2.63;;
15608;SDS011;28705;45.642;13.758;2022-08-04T14:28:53;4.30;;;2.58;;
15608;SDS011;28705;45.642;13.758;2022-08-04T14:31:23;3.53;;;2.63;;
15608;SDS011;28705;45.642;13.758;2022-08-04T14:33:52;2.85;;;2.55;;
15608;SDS011;28705;45.642;13.758;2022-08-04T14:36:20;3.15;;;2.50;;
15608;SDS011;28705;45.642;13.758;2022-08-04T14:38:51;2.97;;;2.70;;
15608;SDS011;28705;45.642;13.758;2022-08-04T14:41:21;2.50;;;2.30;;
15608;SDS011;28705;45.642;13.758;2022-08-04T14:43:51;2.53;;;2.30;;
15608;SDS011;28705;45.642;13.758;2022-08-04T14:46:19;2.33;;;2.13;;
15608;SDS011;28705;45.642;13.758;2022-08-04T14:49:03;2.95;;;2.75;;
15608;SDS011;28705;45.642;13.758;2022-08-04T14:51:36;4.13;;;2.88;;
15608;SDS011;28705;45.642;13.758;2022-08-04T14:54:05;2.30;;;2.15;;
15608;SDS011;28705;45.642;13.758;2022-08-04T14:56:34;2.55;;;2.38;;
15608;SDS011;28705;45.642;13.758;2022-08-04T14:59:08;3.60;;;3.30;;
15608;SDS011;28705;45.642;13.758;2022-08-04T15:01:37;2.83;;;2.63;;
15608;SDS011;28705;45.642;13.758;2022-08-04T15:04:05;3.20;;;2.90;;
15608;SDS011;28705;45.642;13.758;2022-08-04T15:06:33;2.80;;;2.60;;
15608;SDS011;28705;45.642;13.758;2022-08-04T15:09:03;2.85;;;2.65;;
15608;SDS011;28705;45.642;13.758;2022-08-04T15:11:33;2.75;;;2.55;;
15608;SDS011;28705;45.642;13.758;2022-08-04T15:14:02;2.58;;;2.38;;
15608;SDS011;28705;45.642;13.758;2022-08-04T15:16:30;2.80;;;2.60;;
15608;SDS011;28705;45.642;13.758;2022-08-04T15:18:58;2.67;;;2.47;;
15608;SDS011;28705;45.642;13.758;2022-08-04T15:21:26;3.17;;;2.88;;
15608;SDS011;28705;45.642;13.758;2022-08-04T15:23:55;2.60;;;2.40;;
15608;SDS011;28705;45.642;13.758;2022-08-04T15:26:24;5.13;;;2.50;;
15608;SDS011;28705;45.642;13.758;2022-08-04T15:28:59;2.83;;;2.53;;
15608;SDS011;28705;45.642;13.758;2022-08-04T15:31:31;2.58;;;2.38;;
15608;SDS011;28705;45.642;13.758;2022-08-04T15:34:04;2.78;;;2.50;;
15608;SDS011;28705;45.642;13.758;2022-08-04T15:36:34;3.63;;;3.03;;
15608;SDS011;28705;45.642;13.758;2022-08-04T15:39:04;2.50;;;2.35;;
15608;SDS011;28705;45.642;13.758;2022-08-04T15:41:51;2.35;;;2.25;;
15608;SDS011;28705;45.642;13.758;2022-08-04T15:44:35;2.50;;;2.35;;
15608;SDS011;28705;45.642;13.758;2022-08-04T15:47:14;2.08;;;1.88;;
15608;SDS011;28705;45.642;13.758;2022-08-04T15:49:41;2.60;;;2.35;;
15608;SDS011;28705;45.642;13.758;2022-08-04T15:52:10;2.50;;;2.30;;
15608;SDS011;28705;45.642;13.758;2022-08-04T15:54:40;2.17;;;1.98;;